Time;durP1;ratioP1;P1;durP2;ratioP2;P2;SDS_P1;SDS_P2;PMS_P1;PMS_P2;Temp;Humidity;BMP_temperature;BMP_pressure;BME280_temperature;BME280_humidity;BME280_pressure;Samples;Min_cycle;Max_cycle;Signal;HPM_P1;HPM_P2
2023/06/21 00:00:45;;;;;;;0.95;0.95;;;;;;;;;;7416395;19;20194;-94
2023/06/21 00:03:12;;;;;;;0.75;0.75;;;;;;;;;;7417878;19;20145;-92
2023/06/21 00:05:39;;;;;;;1.38;1.23;;;;;;;;;;7410642;19;21503;-94
2023/06/21 00:08:06;;;;;;;0.90;0.90;;;;;;;;;;7409876;19;20140;-91
2023/06/21 00:10:33;;;;;;;1.75;1.27;;;;;;;;;;7405855;19;20173;-93
2023/06/21 00:13:00;;;;;;;2.03;1.30;;;;;;;;;;7408166;19;20165;-94
2023/06/21 00:15:27;;;;;;;2.08;1.65;;;;;;;;;;7411694;19;20129;-94
2023/06/21 00:17:54;;;;;;;1.13;1.10;;;;;;;;;;7412876;19;20144;-93
2023/06/21 00:20:21;;;;;;;1.20;1.10;;;;;;;;;;7411554;19;20594;-95
2023/06/21 00:22:55;;;;;;;3.33;2.00;;;;;;;;;;7402878;19;20191;-93
2023/06/21 00:25:23;;;;;;;1.23;1.23;;;;;;;;;;7408845;19;20848;-93
2023/06/21 00:27:50;;;;;;;0.88;0.88;;;;;;;;;;7408161;19;20137;-93
2023/06/21 00:30:19;;;;;;;1.67;1.17;;;;;;;;;;7400268;19;20147;-94
2023/06/21 00:32:46;;;;;;;1.60;1.50;;;;;;;;;;7396376;19;20196;-93
2023/06/21 00:35:12;;;;;;;1.15;0.95;;;;;;;;;;7394701;19;20154;-94
2023/06/21 00:37:39;;;;;;;1.30;1.23;;;;;;;;;;7397770;19;20490;-94
2023/06/21 00:40:13;;;;;;;1.27;1.20;;;;;;;;;;7403220;19;20208;-93
2023/06/21 00:42:39;;;;;;;1.38;1.27;;;;;;;;;;7399294;19;20218;-93
2023/06/21 00:45:08;;;;;;;12.02;1.48;;;;;;;;;;7398511;19;20555;-93
2023/06/21 00:47:36;;;;;;;1.00;0.90;;;;;;;;;;7398928;19;20141;-93
2023/06/21 00:50:03;;;;;;;0.52;0.52;;;;;;;;;;7401234;19;20208;-93
2023/06/21 00:52:31;;;;;;;1.17;1.08;;;;;;;;;;7400609;19;20145;-94
2023/06/21 00:54:58;;;;;;;1.50;1.40;;;;;;;;;;7398105;19;20565;-93
2023/06/21 00:57:25;;;;;;;1.60;1.52;;;;;;;;;;7402600;19;20129;-93
2023/06/21 00:59:53;;;;;;;1.42;1.33;;;;;;;;;;7398349;19;20620;-93
2023/06/21 01:02:20;;;;;;;1.13;1.13;;;;;;;;;;7400150;19;20125;-93
2023/06/21 01:04:49;;;;;;;2.38;1.20;;;;;;;;;;7398743;19;20200;-93
2023/06/21 01:07:37;;;;;;;1.02;1.02;;;;;;;;;;7401296;19;20212;-93
2023/06/21 01:10:12;;;;;;;1.25;1.25;;;;;;;;;;7399345;19;20222;-92
2023/06/21 01:12:51;;;;;;;1.48;1.33;;;;;;;;;;7398620;19;20208;-93
2023/06/21 01:15:23;;;;;;;1.73;1.58;;;;;;;;;;7398522;19;20518;-92
2023/06/21 01:17:52;;;;;;;1.40;1.30;;;;;;;;;;7407582;19;20140;-93
2023/06/21 01:20:24;;;;;;;1.23;1.23;;;;;;;;;;7415039;19;20983;-93
2023/06/21 01:22:51;;;;;;;1.48;1.38;;;;;;;;;;7413006;19;20171;-93
2023/06/21 01:25:34;;;;;;;3.17;1.08;;;;;;;;;;7409891;19;20141;-93
2023/06/21 01:28:38;;;;;;;1.05;0.93;;;;;;;;;;7417254;19;20143;-94
2023/06/21 01:31:05;;;;;;;1.40;1.30;;;;;;;;;;7419591;19;20147;-93
2023/06/21 01:33:32;;;;;;;0.80;0.80;;;;;;;;;;7414892;19;20153;-94
2023/06/21 01:36:03;;;;;;;4.68;1.58;;;;;;;;;;7408175;19;20597;-93
2023/06/21 01:38:30;;;;;;;1.17;1.15;;;;;;;;;;7398797;19;20208;-92
2023/06/21 01:40:57;;;;;;;0.90;0.90;;;;;;;;;;7409711;19;20200;-92
2023/06/21 01:43:23;;;;;;;0.98;0.98;;;;;;;;;;7408093;19;20160;-94
2023/06/21 01:45:51;;;;;;;1.05;0.98;;;;;;;;;;7410505;19;20176;-93
2023/06/21 01:48:18;;;;;;;1.08;1.08;;;;;;;;;;7394565;19;20145;-93
2023/06/21 01:50:45;;;;;;;3.63;1.55;;;;;;;;;;7399059;19;20133;-93
2023/06/21 01:53:13;;;;;;;0.88;0.88;;;;;;;;;;7406601;19;20168;-93
2023/06/21 01:55:57;;;;;;;2.92;1.35;;;;;;;;;;7412775;19;20500;-94
2023/06/21 01:58:24;;;;;;;1.52;1.42;;;;;;;;;;7408444;19;20148;-94
2023/06/21 02:00:51;;;;;;;1.05;1.05;;;;;;;;;;7404402;19;20369;-94
2023/06/21 02:03:18;;;;;;;1.55;1.48;;;;;;;;;;7396918;19;20170;-92
2023/06/21 02:05:46;;;;;;;0.88;0.88;;;;;;;;;;7403392;19;20125;-93
2023/06/21 02:08:17;;;;;;;1.52;1.42;;;;;;;;;;7403468;19;20141;-93
2023/06/21 02:10:46;;;;;;;0.88;0.88;;;;;;;;;;7395275;19;20155;-94
2023/06/21 02:13:16;;;;;;;1.10;1.10;;;;;;;;;;7399132;19;20185;-93
2023/06/21 02:15:43;;;;;;;1.65;1.55;;;;;;;;;;7405184;19;20151;-93
2023/06/21 02:18:10;;;;;;;1.15;1.05;;;;;;;;;;7400092;19;20158;-93
2023/06/21 02:20:38;;;;;;;1.40;1.35;;;;;;;;;;7402039;19;20145;-93
2023/06/21 02:23:05;;;;;;;2.17;1.98;;;;;;;;;;7397002;19;20651;-93
2023/06/21 02:25:36;;;;;;;1.10;1.08;;;;;;;;;;7391123;19;20131;-93
2023/06/21 02:28:03;;;;;;;0.95;0.95;;;;;;;;;;7397573;19;20221;-93
2023/06/21 02:30:30;;;;;;;1.27;1.27;;;;;;;;;;7400170;19;20149;-91
2023/06/21 02:32:57;;;;;;;1.85;1.73;;;;;;;;;;7399013;19;20193;-94
2023/06/21 02:35:24;;;;;;;1.30;1.30;;;;;;;;;;7402520;19;20144;-93
2023/06/21 02:37:51;;;;;;;1.65;1.55;;;;;;;;;;7403672;19;20131;-93
2023/06/21 02:40:18;;;;;;;1.13;1.02;;;;;;;;;;7404146;19;20570;-93
2023/06/21 02:42:44;;;;;;;2.25;2.08;;;;;;;;;;7404369;19;20145;-93
2023/06/21 02:45:11;;;;;;;1.75;1.65;;;;;;;;;;7403606;19;20139;-94
2023/06/21 02:47:38;;;;;;;1.75;1.65;;;;;;;;;;7400015;19;20152;-94
2023/06/21 02:50:05;;;;;;;1.30;1.20;;;;;;;;;;7397141;19;20141;-92
2023/06/21 02:52:38;;;;;;;1.25;1.25;;;;;;;;;;7393499;19;20132;-94
2023/06/21 02:55:05;;;;;;;2.47;1.42;;;;;;;;;;7391781;19;20209;-94
2023/06/21 02:57:32;;;;;;;0.90;0.90;;;;;;;;;;7399675;19;20501;-92
2023/06/21 02:59:59;;;;;;;1.40;1.33;;;;;;;;;;7399889;19;20137;-92
2023/06/21 03:02:33;;;;;;;1.10;1.00;;;;;;;;;;7389765;19;20163;-94
2023/06/21 03:05:01;;;;;;;4.15;1.52;;;;;;;;;;7399930;19;20168;-94
2023/06/21 03:07:28;;;;;;;1.20;1.20;;;;;;;;;;7419832;19;20121;-90
2023/06/21 03:09:55;;;;;;;3.95;1.60;;;;;;;;;;7428355;19;20137;-91
2023/06/21 03:12:21;;;;;;;0.95;0.95;;;;;;;;;;7426375;19;20133;-91
2023/06/21 03:14:49;;;;;;;1.23;1.23;;;;;;;;;;7430494;19;20141;-91
2023/06/21 03:17:15;;;;;;;1.27;1.23;;;;;;;;;;7426420;19;20149;-91
2023/06/21 03:19:42;;;;;;;0.88;0.88;;;;;;;;;;7426291;19;20141;-91
2023/06/21 03:22:08;;;;;;;1.13;1.13;;;;;;;;;;7425732;19;20177;-91
2023/06/21 03:24:35;;;;;;;0.98;0.98;;;;;;;;;;7421689;19;20173;-90
2023/06/21 03:27:02;;;;;;;1.35;1.25;;;;;;;;;;7426866;19;20127;-90
2023/06/21 03:29:29;;;;;;;1.50;1.38;;;;;;;;;;7420635;19;20149;-91
2023/06/21 03:31:56;;;;;;;1.00;1.00;;;;;;;;;;7423475;19;20149;-91
2023/06/21 03:34:22;;;;;;;0.52;0.52;;;;;;;;;;7421868;19;20153;-91
2023/06/21 03:36:53;;;;;;;0.73;0.73;;;;;;;;;;7404879;19;20152;-94
2023/06/21 03:39:19;;;;;;;1.50;1.40;;;;;;;;;;7394794;19;20152;-92
2023/06/21 03:41:46;;;;;;;1.60;1.50;;;;;;;;;;7393909;19;20136;-93
2023/06/21 03:44:13;;;;;;;1.17;0.98;;;;;;;;;;7390671;19;20228;-93
2023/06/21 03:46:40;;;;;;;0.80;0.80;;;;;;;;;;7390839;19;20141;-94
2023/06/21 03:49:06;;;;;;;1.33;1.23;;;;;;;;;;7393366;19;20140;-91
2023/06/21 03:51:33;;;;;;;1.25;1.25;;;;;;;;;;7391198;19;20151;-94
2023/06/21 03:54:00;;;;;;;1.08;1.08;;;;;;;;;;7393017;19;20179;-94
2023/06/21 03:56:28;;;;;;;1.25;1.15;;;;;;;;;;7388171;19;20485;-92
2023/06/21 03:58:54;;;;;;;2.13;1.35;;;;;;;;;;7389779;19;20151;-93
2023/06/21 04:01:22;;;;;;;1.98;1.88;;;;;;;;;;7389622;19;20602;-93
2023/06/21 04:03:49;;;;;;;0.88;0.88;;;;;;;;;;7388960;19;20157;-93
2023/06/21 04:06:16;;;;;;;1.92;1.83;;;;;;;;;;7389503;19;20129;-90
2023/06/21 04:08:49;;;;;;;0.68;0.68;;;;;;;;;;7387127;19;20140;-93
2023/06/21 04:11:16;;;;;;;1.55;1.08;;;;;;;;;;7389090;19;20129;-93
2023/06/21 04:13:43;;;;;;;1.77;1.10;;;;;;;;;;7393021;19;20167;-93
2023/06/21 04:16:10;;;;;;;1.33;1.23;;;;;;;;;;7394985;19;20156;-93
2023/06/21 04:18:36;;;;;;;1.00;1.00;;;;;;;;;;7394082;19;20136;-92
2023/06/21 04:21:03;;;;;;;1.40;1.40;;;;;;;;;;7392382;19;20141;-93
2023/06/21 04:23:30;;;;;;;1.17;1.13;;;;;;;;;;7397262;19;20653;-93
2023/06/21 04:25:56;;;;;;;1.40;1.30;;;;;;;;;;7398878;19;20159;-93
2023/06/21 04:28:25;;;;;;;1.48;1.30;;;;;;;;;;7399275;19;20548;-92
2023/06/21 04:30:52;;;;;;;1.58;1.48;;;;;;;;;;7396655;19;20166;-92
2023/06/21 04:33:18;;;;;;;1.67;1.58;;;;;;;;;;7398839;19;20157;-92
2023/06/21 04:35:45;;;;;;;1.02;0.95;;;;;;;;;;7396145;19;20625;-92
2023/06/21 04:38:12;;;;;;;1.13;1.13;;;;;;;;;;7396927;19;20150;-92
2023/06/21 04:40:40;;;;;;;1.13;1.13;;;;;;;;;;7401974;19;20152;-92
2023/06/21 04:43:07;;;;;;;1.45;1.38;;;;;;;;;;7397774;19;20172;-92
2023/06/21 04:45:33;;;;;;;1.25;1.15;;;;;;;;;;7394065;19;20148;-92
2023/06/21 04:48:00;;;;;;;0.93;0.93;;;;;;;;;;7396160;19;20201;-92
2023/06/21 04:50:27;;;;;;;3.05;1.58;;;;;;;;;;7395307;19;20656;-92
2023/06/21 04:52:58;;;;;;;1.30;1.30;;;;;;;;;;7402483;19;20153;-93
2023/06/21 04:55:26;;;;;;;2.00;1.90;;;;;;;;;;7400222;19;20290;-92
2023/06/21 04:57:53;;;;;;;1.55;1.45;;;;;;;;;;7394074;19;20149;-93
2023/06/21 05:00:20;;;;;;;1.25;1.17;;;;;;;;;;7399304;19;20462;-92
2023/06/21 05:02:47;;;;;;;1.58;1.48;;;;;;;;;;7405237;19;20133;-93
2023/06/21 05:05:14;;;;;;;1.27;1.13;;;;;;;;;;7406846;19;20145;-93
2023/06/21 05:07:41;;;;;;;1.33;1.33;;;;;;;;;;7404512;19;20161;-94
2023/06/21 05:10:09;;;;;;;0.82;0.82;;;;;;;;;;7410014;19;20186;-93
2023/06/21 05:12:36;;;;;;;0.90;0.90;;;;;;;;;;7410019;19;20145;-93
2023/06/21 05:15:05;;;;;;;2.15;1.23;;;;;;;;;;7432039;19;20133;-94
2023/06/21 05:17:36;;;;;;;1.60;1.50;;;;;;;;;;7430147;19;20133;-94
2023/06/21 05:20:40;;;;;;;1.48;1.38;;;;;;;;;;7431566;19;20141;-96
2023/06/21 05:24:33;;;;;;;1.27;1.17;;;;;;;;;;7427609;19;20141;-96
2023/06/21 05:27:01;;;;;;;1.40;1.40;;;;;;;;;;7424378;19;20149;-94
2023/06/21 05:29:28;;;;;;;1.08;1.05;;;;;;;;;;7431054;19;20157;-93
2023/06/21 05:31:55;;;;;;;2.10;2.00;;;;;;;;;;7426311;19;20129;-92
2023/06/21 05:34:22;;;;;;;1.42;1.33;;;;;;;;;;7412953;19;20172;-92
2023/06/21 05:36:48;;;;;;;1.10;0.80;;;;;;;;;;7424146;19;20133;-91
2023/06/21 05:39:15;;;;;;;0.80;0.80;;;;;;;;;;7430790;19;20129;-94
2023/06/21 05:41:42;;;;;;;1.25;1.25;;;;;;;;;;7424552;19;20572;-92
2023/06/21 05:44:09;;;;;;;0.88;0.88;;;;;;;;;;7429922;19;20167;-92
2023/06/21 05:46:35;;;;;;;1.40;1.30;;;;;;;;;;7427182;19;20132;-93
2023/06/21 05:49:02;;;;;;;1.73;1.67;;;;;;;;;;7424774;19;20148;-93
2023/06/21 05:51:29;;;;;;;4.57;1.33;;;;;;;;;;7425778;19;20170;-93
2023/06/21 05:53:56;;;;;;;1.17;1.08;;;;;;;;;;7423724;19;20153;-93
2023/06/21 05:56:27;;;;;;;1.00;1.00;;;;;;;;;;7428923;19;20129;-94
2023/06/21 05:58:53;;;;;;;1.52;1.45;;;;;;;;;;7428190;19;20137;-94
2023/06/21 06:01:20;;;;;;;1.52;1.45;;;;;;;;;;7428315;19;20129;-93
2023/06/21 06:03:50;;;;;;;0.95;0.95;;;;;;;;;;7427491;19;20173;-93
2023/06/21 06:06:17;;;;;;;1.35;1.17;;;;;;;;;;7428030;19;20169;-93
2023/06/21 06:08:45;;;;;;;1.58;1.48;;;;;;;;;;7419860;19;20148;-93
2023/06/21 06:11:12;;;;;;;1.33;1.23;;;;;;;;;;7394904;19;20196;-94
2023/06/21 06:17:22;;;;;;;0.90;0.90;;;;;;;;;;7400348;19;20192;-95
2023/06/21 06:20:08;;;;;;;6.30;1.52;;;;;;;;;;7396151;19;20160;-94
2023/06/21 06:22:35;;;;;;;1.40;1.30;;;;;;;;;;7402761;19;20140;-91
2023/06/21 06:25:02;;;;;;;2.45;2.25;;;;;;;;;;7415502;19;20146;-91
2023/06/21 06:27:29;;;;;;;1.33;1.23;;;;;;;;;;7405596;19;20180;-93
2023/06/21 06:29:57;;;;;;;1.42;1.35;;;;;;;;;;7414235;19;20147;-92
2023/06/21 06:32:59;;;;;;;1.33;1.17;;;;;;;;;;7416837;19;20143;-94
2023/06/21 06:35:27;;;;;;;1.35;0.98;;;;;;;;;;7416225;19;20136;-91
2023/06/21 06:37:54;;;;;;;2.20;1.75;;;;;;;;;;7408116;19;20148;-93
2023/06/21 06:40:24;;;;;;;1.00;1.00;;;;;;;;;;7421398;19;20146;-92
2023/06/21 06:42:54;;;;;;;1.52;1.42;;;;;;;;;;7420362;19;20172;-93
2023/06/21 07:37:31;;;;;;;1.42;1.33;;;;;;;;;;7401124;19;20200;-92
2023/06/21 07:40:01;;;;;;;1.52;1.42;;;;;;;;;;7398067;19;20168;-90
2023/06/21 07:42:28;;;;;;;1.40;1.30;;;;;;;;;;7402590;19;20589;-89
2023/06/21 07:44:55;;;;;;;1.35;1.25;;;;;;;;;;7403678;19;20657;-90
2023/06/21 07:47:22;;;;;;;2.80;1.25;;;;;;;;;;7410174;19;20525;-89
2023/06/21 07:49:59;;;;;;;0.73;0.73;;;;;;;;;;7412591;19;20160;-90
2023/06/21 07:52:40;;;;;;;0.88;0.88;;;;;;;;;;7404180;19;20145;-90
2023/06/21 07:55:11;;;;;;;1.08;0.57;;;;;;;;;;7408785;19;20212;-90
2023/06/21 07:57:38;;;;;;;0.68;0.68;;;;;;;;;;7405341;19;20137;-89
2023/06/21 08:00:11;;;;;;;0.68;0.68;;;;;;;;;;7407372;19;20193;-89
2023/06/21 08:02:42;;;;;;;0.65;0.65;;;;;;;;;;7409685;19;20121;-90
2023/06/21 08:05:09;;;;;;;0.65;0.65;;;;;;;;;;7406120;19;20148;-91
2023/06/21 08:07:36;;;;;;;1.48;0.80;;;;;;;;;;7409002;19;20537;-92
2023/06/21 08:10:02;;;;;;;0.75;0.75;;;;;;;;;;7410783;19;20169;-91
2023/06/21 08:12:29;;;;;;;0.50;0.50;;;;;;;;;;7409563;19;20541;-91
2023/06/21 08:14:56;;;;;;;5.57;0.57;;;;;;;;;;7408338;19;20185;-92
2023/06/21 08:17:22;;;;;;;0.70;0.70;;;;;;;;;;7409063;19;20141;-92
2023/06/21 08:19:49;;;;;;;0.65;0.65;;;;;;;;;;7401146;19;20494;-91
2023/06/21 08:22:16;;;;;;;0.43;0.43;;;;;;;;;;7402638;19;20129;-90
2023/06/21 08:24:43;;;;;;;0.40;0.40;;;;;;;;;;7404581;19;20163;-92
2023/06/21 08:27:10;;;;;;;0.45;0.40;;;;;;;;;;7404135;19;20147;-93
2023/06/21 08:29:37;;;;;;;0.63;0.63;;;;;;;;;;7410453;19;20156;-91
2023/06/21 08:32:04;;;;;;;0.73;0.68;;;;;;;;;;7402906;19;20145;-91
2023/06/21 08:34:32;;;;;;;0.40;0.40;;;;;;;;;;7397005;19;20157;-93
2023/06/21 08:36:59;;;;;;;0.35;0.35;;;;;;;;;;7396639;19;20489;-92
2023/06/21 08:39:25;;;;;;;0.40;0.40;;;;;;;;;;7397271;19;20145;-91
2023/06/21 08:41:56;;;;;;;0.30;0.30;;;;;;;;;;7399315;19;20133;-91
2023/06/21 08:44:22;;;;;;;0.95;0.95;;;;;;;;;;7398024;19;20152;-91
2023/06/21 08:46:49;;;;;;;0.43;0.43;;;;;;;;;;7395895;19;20141;-91
2023/06/21 08:49:20;;;;;;;0.60;0.60;;;;;;;;;;7399709;19;20155;-91
2023/06/21 08:51:48;;;;;;;0.82;0.82;;;;;;;;;;7406696;19;20638;-91
2023/06/21 08:54:16;;;;;;;0.38;0.38;;;;;;;;;;7408657;19;20160;-92
2023/06/21 08:57:03;;;;;;;0.63;0.63;;;;;;;;;;7407095;19;20147;-91
2023/06/21 08:59:35;;;;;;;0.45;0.45;;;;;;;;;;7404952;19;20558;-92
2023/06/21 09:02:23;;;;;;;1.30;0.85;;;;;;;;;;7404859;19;20733;-92
2023/06/21 09:04:52;;;;;;;0.40;0.40;;;;;;;;;;7397966;19;20145;-92
2023/06/21 09:07:20;;;;;;;0.70;0.70;;;;;;;;;;7401810;19;20216;-92
2023/06/21 09:09:47;;;;;;;1.42;1.33;;;;;;;;;;7398638;19;20148;-92
2023/06/21 09:12:16;;;;;;;0.75;0.75;;;;;;;;;;7404613;19;20500;-92
2023/06/21 09:14:43;;;;;;;0.95;0.73;;;;;;;;;;7400992;19;20160;-92
2023/06/21 09:17:11;;;;;;;0.30;0.30;;;;;;;;;;7399601;19;20133;-92
2023/06/21 09:19:38;;;;;;;0.70;0.70;;;;;;;;;;7400729;19;20209;-92
2023/06/21 09:22:06;;;;;;;0.43;0.43;;;;;;;;;;7401755;19;20145;-92
2023/06/21 09:24:33;;;;;;;0.68;0.63;;;;;;;;;;7398402;19;20652;-92
2023/06/21 09:27:00;;;;;;;0.40;0.40;;;;;;;;;;7399287;19;20144;-92
2023/06/21 09:29:26;;;;;;;0.65;0.65;;;;;;;;;;7396299;19;20137;-93
2023/06/21 09:31:53;;;;;;;0.70;0.70;;;;;;;;;;7397357;19;20140;-92
2023/06/21 09:34:20;;;;;;;0.57;0.57;;;;;;;;;;7395939;19;20167;-93
2023/06/21 09:36:47;;;;;;;0.50;0.50;;;;;;;;;;7397747;19;20189;-93
2023/06/21 09:39:15;;;;;;;0.43;0.43;;;;;;;;;;7398335;19;20613;-94
2023/06/21 09:41:41;;;;;;;0.65;0.65;;;;;;;;;;7396795;19;20125;-94
2023/06/21 09:44:08;;;;;;;0.73;0.73;;;;;;;;;;7399937;19;20180;-94
2023/06/21 09:46:35;;;;;;;1.38;0.95;;;;;;;;;;7399265;19;20217;-93
2023/06/21 09:49:08;;;;;;;0.52;0.52;;;;;;;;;;7397381;19;20156;-93
2023/06/21 09:51:46;;;;;;;0.65;0.65;;;;;;;;;;7404384;19;20654;-92
2023/06/21 09:54:13;;;;;;;0.40;0.40;;;;;;;;;;7401246;19;20172;-93
2023/06/21 09:56:39;;;;;;;0.30;0.30;;;;;;;;;;7399438;19;20531;-93
2023/06/21 09:59:13;;;;;;;0.50;0.50;;;;;;;;;;7399901;19;20149;-91
2023/06/21 10:01:42;;;;;;;0.30;0.30;;;;;;;;;;7401013;19;20128;-92
2023/06/21 10:04:13;;;;;;;0.43;0.43;;;;;;;;;;7394544;19;20184;-92
2023/06/21 10:06:51;;;;;;;0.30;0.30;;;;;;;;;;7396539;19;20125;-92
2023/06/21 10:09:18;;;;;;;0.50;0.50;;;;;;;;;;7394547;19;20485;-92
2023/06/21 10:11:45;;;;;;;0.43;0.43;;;;;;;;;;7394744;19;20145;-91
2023/06/21 10:14:22;;;;;;;0.50;0.50;;;;;;;;;;7393733;19;20704;-92
2023/06/21 10:16:50;;;;;;;0.45;0.45;;;;;;;;;;7396330;19;20147;-92
2023/06/21 10:19:20;;;;;;;0.60;0.60;;;;;;;;;;7397081;19;20153;-91
2023/06/21 10:21:50;;;;;;;0.98;0.98;;;;;;;;;;7401264;19;20608;-92
2023/06/21 10:24:18;;;;;;;0.40;0.40;;;;;;;;;;7394276;19;20168;-92
2023/06/21 10:26:46;;;;;;;1.10;0.90;;;;;;;;;;7397089;19;20143;-92
2023/06/21 10:29:13;;;;;;;0.55;0.55;;;;;;;;;;7394993;19;20141;-91
2023/06/21 10:31:43;;;;;;;0.68;0.68;;;;;;;;;;7398013;19;20593;-91
2023/06/21 10:34:18;;;;;;;0.75;0.75;;;;;;;;;;7397178;19;20149;-91
2023/06/21 10:36:48;;;;;;;0.38;0.38;;;;;;;;;;7396088;19;20156;-90
2023/06/21 10:39:15;;;;;;;0.63;0.63;;;;;;;;;;7399167;19;20220;-93
2023/06/21 10:41:42;;;;;;;1.65;0.50;;;;;;;;;;7396724;19;20133;-91
2023/06/21 10:44:09;;;;;;;0.50;0.50;;;;;;;;;;7397696;19;20157;-91
2023/06/21 10:46:37;;;;;;;0.40;0.40;;;;;;;;;;7402098;19;20133;-92
2023/06/21 10:49:05;;;;;;;0.65;0.65;;;;;;;;;;7395833;19;20129;-91
2023/06/21 10:51:33;;;;;;;0.50;0.50;;;;;;;;;;7401199;19;20654;-91
2023/06/21 10:54:00;;;;;;;1.10;1.10;;;;;;;;;;7400279;19;20153;-91
2023/06/21 10:56:29;;;;;;;0.68;0.68;;;;;;;;;;7401054;19;20137;-91
2023/06/21 10:58:55;;;;;;;0.70;0.43;;;;;;;;;;7395243;19;20490;-91
2023/06/21 11:01:22;;;;;;;0.60;0.60;;;;;;;;;;7395750;19;20144;-91
2023/06/21 11:03:49;;;;;;;0.40;0.40;;;;;;;;;;7393346;19;20199;-93
2023/06/21 11:06:28;;;;;;;0.57;0.57;;;;;;;;;;7392959;19;20140;-92
2023/06/21 11:09:10;;;;;;;0.47;0.47;;;;;;;;;;7397570;19;20141;-90
2023/06/21 11:11:40;;;;;;;0.40;0.40;;;;;;;;;;7401645;19;20171;-91
2023/06/21 11:14:07;;;;;;;0.50;0.50;;;;;;;;;;7404148;19;20177;-91
2023/06/21 11:16:35;;;;;;;0.43;0.43;;;;;;;;;;7402254;19;20617;-91
2023/06/21 11:19:07;;;;;;;0.40;0.40;;;;;;;;;;7400031;19;20125;-90
2023/06/21 11:21:49;;;;;;;0.40;0.40;;;;;;;;;;7396759;19;20512;-91
2023/06/21 11:24:20;;;;;;;0.77;0.77;;;;;;;;;;7391913;19;20168;-91
2023/06/21 11:26:57;;;;;;;0.63;0.63;;;;;;;;;;7397081;19;20162;-90
2023/06/21 11:29:43;;;;;;;0.50;0.50;;;;;;;;;;7398627;19;20144;-92
2023/06/21 11:32:14;;;;;;;0.60;0.60;;;;;;;;;;7396588;19;20137;-92
2023/06/21 11:34:56;;;;;;;1.17;0.75;;;;;;;;;;7396630;19;20167;-92
2023/06/21 11:37:39;;;;;;;1.00;1.00;;;;;;;;;;7394870;19;20137;-93
2023/06/21 11:40:27;;;;;;;0.82;0.55;;;;;;;;;;7394592;19;20144;-91
2023/06/21 11:42:54;;;;;;;1.45;1.00;;;;;;;;;;7396537;19;20672;-91
2023/06/21 11:45:35;;;;;;;0.80;0.80;;;;;;;;;;7395803;19;20137;-92
2023/06/21 11:48:08;;;;;;;0.57;0.57;;;;;;;;;;7394419;19;20161;-91
2023/06/21 11:50:45;;;;;;;0.57;0.57;;;;;;;;;;7395191;19;20136;-92
2023/06/21 11:53:23;;;;;;;0.98;0.63;;;;;;;;;;7393517;19;20160;-92
2023/06/21 11:55:52;;;;;;;1.48;0.95;;;;;;;;;;7394689;19;20137;-92
2023/06/21 11:58:19;;;;;;;0.65;0.65;;;;;;;;;;7396826;19;20129;-92
2023/06/21 12:00:46;;;;;;;0.50;0.50;;;;;;;;;;7399957;19;20153;-93
2023/06/21 12:03:14;;;;;;;0.40;0.40;;;;;;;;;;7392145;19;20172;-93
2023/06/21 12:05:50;;;;;;;1.17;1.08;;;;;;;;;;7403400;19;20597;-94
2023/06/21 12:08:18;;;;;;;0.68;0.68;;;;;;;;;;7407059;19;20161;-93
2023/06/21 12:10:45;;;;;;;0.70;0.70;;;;;;;;;;7408383;19;20147;-93
2023/06/21 12:13:14;;;;;;;0.95;0.95;;;;;;;;;;7399150;19;20160;-92
2023/06/21 12:16:05;;;;;;;0.30;0.30;;;;;;;;;;7398004;19;20490;-92
2023/06/21 12:18:33;;;;;;;0.73;0.73;;;;;;;;;;7394800;19;20482;-92
2023/06/21 12:21:01;;;;;;;0.75;0.75;;;;;;;;;;7394268;19;20137;-93
2023/06/21 12:23:31;;;;;;;0.50;0.50;;;;;;;;;;7393153;19;20149;-92
2023/06/21 12:26:02;;;;;;;0.38;0.38;;;;;;;;;;7396974;19;20145;-93
2023/06/21 12:28:33;;;;;;;0.70;0.70;;;;;;;;;;7407589;19;20141;-92
2023/06/21 12:31:05;;;;;;;0.52;0.52;;;;;;;;;;7402111;19;20619;-93
2023/06/21 12:33:35;;;;;;;0.80;0.60;;;;;;;;;;7417219;19;20153;-93
2023/06/21 12:36:20;;;;;;;0.93;0.90;;;;;;;;;;7414342;19;20208;-93
2023/06/21 12:38:54;;;;;;;0.88;0.88;;;;;;;;;;7409799;19;20145;-93
2023/06/21 12:41:23;;;;;;;0.95;0.95;;;;;;;;;;7397868;19;20216;-93
2023/06/21 12:43:57;;;;;;;1.08;1.02;;;;;;;;;;7395934;19;20180;-93
2023/06/21 12:46:24;;;;;;;0.75;0.75;;;;;;;;;;7396980;19;20139;-93
2023/06/21 12:48:56;;;;;;;0.50;0.50;;;;;;;;;;7400571;19;20197;-93
2023/06/21 12:51:36;;;;;;;0.43;0.43;;;;;;;;;;7395892;19;20528;-93
2023/06/21 12:54:06;;;;;;;1.00;0.70;;;;;;;;;;7395628;19;20160;-93
2023/06/21 12:56:38;;;;;;;0.95;0.80;;;;;;;;;;7398886;19;20157;-93
2023/06/21 12:59:05;;;;;;;0.55;0.55;;;;;;;;;;7399216;19;20152;-92
2023/06/21 13:01:33;;;;;;;0.57;0.57;;;;;;;;;;7396754;19;20145;-93
2023/06/21 13:04:03;;;;;;;1.13;1.02;;;;;;;;;;7401133;19;20196;-92
2023/06/21 13:06:30;;;;;;;6.38;1.13;;;;;;;;;;7406373;19;20147;-92
2023/06/21 13:08:57;;;;;;;0.55;0.55;;;;;;;;;;7408485;19;20235;-93
2023/06/21 13:11:25;;;;;;;0.50;0.50;;;;;;;;;;7398892;19;20136;-92
2023/06/21 13:13:52;;;;;;;1.05;1.02;;;;;;;;;;7398355;19;20160;-92
2023/06/21 13:16:18;;;;;;;0.70;0.70;;;;;;;;;;7401325;19;20126;-93
2023/06/21 13:18:46;;;;;;;0.50;0.50;;;;;;;;;;7402968;19;20542;-92
2023/06/21 13:21:17;;;;;;;0.80;0.80;;;;;;;;;;7400886;19;20157;-92
2023/06/21 13:23:45;;;;;;;1.63;1.08;;;;;;;;;;7398287;19;20173;-93
2023/06/21 13:26:12;;;;;;;0.57;0.57;;;;;;;;;;7395819;19;20625;-93
2023/06/21 13:28:39;;;;;;;0.52;0.52;;;;;;;;;;7396372;19;20212;-93
2023/06/21 13:31:05;;;;;;;0.85;0.85;;;;;;;;;;7399165;19;20143;-93
2023/06/21 13:33:32;;;;;;;2.83;0.60;;;;;;;;;;7404338;19;20213;-93
2023/06/21 13:35:59;;;;;;;0.90;0.90;;;;;;;;;;7407254;19;20204;-93
2023/06/21 13:38:26;;;;;;;0.80;0.80;;;;;;;;;;7407447;19;20137;-93
2023/06/21 13:40:53;;;;;;;11.13;0.57;;;;;;;;;;7412644;19;20145;-93
2023/06/21 13:43:19;;;;;;;0.75;0.75;;;;;;;;;;7408456;19;20149;-93
2023/06/21 13:45:46;;;;;;;1.10;1.00;;;;;;;;;;7414805;19;20145;-93
2023/06/21 13:48:13;;;;;;;0.75;0.68;;;;;;;;;;7410420;19;20185;-93
2023/06/21 13:50:43;;;;;;;0.70;0.70;;;;;;;;;;7397904;19;20196;-93
2023/06/21 13:53:10;;;;;;;0.50;0.50;;;;;;;;;;7401928;19;20169;-94
2023/06/21 13:55:37;;;;;;;0.77;0.77;;;;;;;;;;7404636;19;20149;-93
2023/06/21 13:58:03;;;;;;;0.40;0.40;;;;;;;;;;7402537;19;20140;-92
2023/06/21 14:00:31;;;;;;;1.38;1.02;;;;;;;;;;7403722;19;20150;-92
2023/06/21 14:03:00;;;;;;;0.50;0.50;;;;;;;;;;7402297;19;20637;-93
2023/06/21 14:05:27;;;;;;;0.63;0.63;;;;;;;;;;7410339;19;20141;-94
2023/06/21 14:07:54;;;;;;;0.50;0.50;;;;;;;;;;7408776;19;20167;-94
2023/06/21 14:10:21;;;;;;;1.00;1.00;;;;;;;;;;7404371;19;20141;-93
2023/06/21 14:12:47;;;;;;;0.80;0.80;;;;;;;;;;7403426;19;20217;-92
2023/06/21 14:15:14;;;;;;;0.80;0.80;;;;;;;;;;7402468;19;20137;-93
2023/06/21 14:17:41;;;;;;;1.00;0.95;;;;;;;;;;7403947;19;20544;-93
2023/06/21 14:20:09;;;;;;;1.17;0.60;;;;;;;;;;7400285;19;20145;-93
2023/06/21 14:22:36;;;;;;;0.75;0.75;;;;;;;;;;7398512;19;20483;-92
2023/06/21 14:25:06;;;;;;;0.93;0.93;;;;;;;;;;7397225;19;20151;-93
2023/06/21 14:27:32;;;;;;;0.43;0.43;;;;;;;;;;7398541;19;20144;-93
2023/06/21 14:30:02;;;;;;;0.40;0.40;;;;;;;;;;7396902;19;20140;-94
2023/06/21 14:32:30;;;;;;;0.82;0.82;;;;;;;;;;7398099;19;20141;-94
2023/06/21 14:34:57;;;;;;;0.70;0.70;;;;;;;;;;7398590;19;20168;-93
2023/06/21 14:37:25;;;;;;;1.30;0.52;;;;;;;;;;7403321;19;20154;-93
2023/06/21 14:39:59;;;;;;;0.85;0.77;;;;;;;;;;7405599;19;20674;-93
2023/06/21 14:42:26;;;;;;;0.75;0.75;;;;;;;;;;7407772;19;20148;-93
2023/06/21 14:44:53;;;;;;;0.77;0.70;;;;;;;;;;7403592;19;20230;-92
2023/06/21 14:47:19;;;;;;;0.60;0.60;;;;;;;;;;7405968;19;20137;-92
2023/06/21 14:49:46;;;;;;;1.00;0.82;;;;;;;;;;7398814;19;20212;-93
2023/06/21 14:52:15;;;;;;;0.63;0.63;;;;;;;;;;7404833;19;20140;-93
2023/06/21 14:54:42;;;;;;;0.40;0.40;;;;;;;;;;7403456;19;20152;-92
2023/06/21 14:57:10;;;;;;;0.68;0.65;;;;;;;;;;7401171;19;20160;-93
2023/06/21 14:59:37;;;;;;;0.85;0.80;;;;;;;;;;7407569;19;20143;-94
2023/06/21 15:02:09;;;;;;;0.77;0.77;;;;;;;;;;7403750;19;20583;-92
2023/06/21 15:04:36;;;;;;;0.47;0.47;;;;;;;;;;7404402;19;20145;-93
2023/06/21 15:07:07;;;;;;;0.75;0.73;;;;;;;;;;7405275;19;20148;-93
2023/06/21 15:09:34;;;;;;;0.80;0.80;;;;;;;;;;7404809;19;20141;-93
2023/06/21 15:12:01;;;;;;;1.13;0.73;;;;;;;;;;7396081;19;20141;-93
2023/06/21 15:14:27;;;;;;;0.55;0.55;;;;;;;;;;7392221;19;20709;-93
2023/06/21 15:20:33;;;;;;;0.88;0.80;;;;;;;;;;7397162;19;20172;-93
2023/06/21 15:23:00;;;;;;;0.93;0.80;;;;;;;;;;7392568;19;20186;-92
2023/06/21 15:25:46;;;;;;;0.82;0.82;;;;;;;;;;7393073;19;20145;-93
2023/06/21 15:28:13;;;;;;;0.63;0.57;;;;;;;;;;7392673;19;20137;-93
2023/06/21 15:31:03;;;;;;;;;;;;;;;;;;;;;
2023/06/21 15:33:49;;;;;;;0.60;0.60;;;;;;;;;;7385582;19;20201;-93
2023/06/21 15:40:08;;;;;;;0.63;0.63;;;;;;;;;;7388196;19;20148;-93
2023/06/21 15:47:14;;;;;;;0.93;0.80;;;;;;;;;;7385941;19;20157;-93
2023/06/21 15:50:20;;;;;;;1.15;0.98;;;;;;;;;;7388353;19;20145;-93
2023/06/21 16:55:35;;;;;;;0.93;0.93;;;;;;;;;;7400835;19;20165;-89
2023/06/21 16:58:10;;;;;;;0.88;0.88;;;;;;;;;;7395234;19;20621;-90
2023/06/21 17:00:36;;;;;;;1.02;0.95;;;;;;;;;;7396221;19;20167;-89
2023/06/21 17:03:04;;;;;;;0.50;0.50;;;;;;;;;;7399413;19;20200;-90
2023/06/21 17:05:53;;;;;;;1.70;1.60;;;;;;;;;;7397598;19;20133;-90
2023/06/21 17:08:33;;;;;;;1.00;0.90;;;;;;;;;;7398178;19;20153;-90